sensor_id;sensor_type;location;lat;lon;timestamp;temperature;humidity
36384;DHT22;22418;51.210;6.976;2023-09-19T00:00:35;17.90;99.90
36384;DHT22;22418;51.210;6.976;2023-09-19T00:03:06;17.90;99.90
36384;DHT22;22418;51.210;6.976;2023-09-19T00:05:37;17.90;99.90
36384;DHT22;22418;51.210;6.976;2023-09-19T00:08:14;17.90;99.90
36384;DHT22;22418;51.210;6.976;2023-09-19T00:10:45;17.80;99.90
36384;DHT22;22418;51.210;6.976;2023-09-19T00:13:16;17.80;99.90
36384;DHT22;22418;51.210;6.976;2023-09-19T00:15:47;17.80;99.90
36384;DHT22;22418;51.210;6.976;2023-09-19T00:18:21;17.80;99.90
36384;DHT22;22418;51.210;6.976;2023-09-19T00:20:52;17.80;99.90
36384;DHT22;22418;51.210;6.976;2023-09-19T00:23:23;17.80;99.90
36384;DHT22;22418;51.210;6.976;2023-09-19T00:25:54;17.80;99.90
36384;DHT22;22418;51.210;6.976;2023-09-19T00:28:28;17.70;99.90
36384;DHT22;22418;51.210;6.976;2023-09-19T00:31:00;17.70;99.90
36384;DHT22;22418;51.210;6.976;2023-09-19T00:33:32;17.70;99.90
36384;DHT22;22418;51.210;6.976;2023-09-19T00:36:02;17.60;99.90
36384;DHT22;22418;51.210;6.976;2023-09-19T00:38:35;17.70;99.90
36384;DHT22;22418;51.210;6.976;2023-09-19T00:41:06;17.70;99.90
36384;DHT22;22418;51.210;6.976;2023-09-19T00:43:37;17.60;99.90
36384;DHT22;22418;51.210;6.976;2023-09-19T00:46:07;17.60;99.90
36384;DHT22;22418;51.210;6.976;2023-09-19T00:48:41;17.60;99.90
36384;DHT22;22418;51.210;6.976;2023-09-19T00:51:14;17.60;99.90
36384;DHT22;22418;51.210;6.976;2023-09-19T00:53:49;17.60;99.90
36384;DHT22;22418;51.210;6.976;2023-09-19T00:56:20;17.60;99.90
36384;DHT22;22418;51.210;6.976;2023-09-19T00:58:51;17.50;99.90
36384;DHT22;22418;51.210;6.976;2023-09-19T01:01:21;17.60;99.90
36384;DHT22;22418;51.210;6.976;2023-09-19T01:03:55;17.50;99.90
36384;DHT22;22418;51.210;6.976;2023-09-19T01:06:25;17.60;99.90
36384;DHT22;22418;51.210;6.976;2023-09-19T01:08:56;17.50;99.90
36384;DHT22;22418;51.210;6.976;2023-09-19T01:11:35;17.50;99.90
36384;DHT22;22418;51.210;6.976;2023-09-19T01:17:22;17.60;99.90
36384;DHT22;22418;51.210;6.976;2023-09-19T01:20:06;17.60;99.90
36384;DHT22;22418;51.210;6.976;2023-09-19T01:22:57;17.60;99.90
36384;DHT22;22418;51.210;6.976;2023-09-19T01:31:11;17.70;99.90
36384;DHT22;22418;51.210;6.976;2023-09-19T01:34:02;17.60;99.90
36384;DHT22;22418;51.210;6.976;2023-09-19T01:36:36;17.60;99.90
36384;DHT22;22418;51.210;6.976;2023-09-19T01:39:11;17.50;99.90
36384;DHT22;22418;51.210;6.976;2023-09-19T01:42:20;17.50;99.90
36384;DHT22;22418;51.210;6.976;2023-09-19T01:44:59;17.50;99.90
36384;DHT22;22418;51.210;6.976;2023-09-19T01:47:41;17.50;99.90
36384;DHT22;22418;51.210;6.976;2023-09-19T01:53:10;17.50;99.90
36384;DHT22;22418;51.210;6.976;2023-09-19T01:55:47;17.50;99.90
36384;DHT22;22418;51.210;6.976;2023-09-19T02:01:12;17.50;99.90
36384;DHT22;22418;51.210;6.976;2023-09-19T02:03:47;17.50;99.90
36384;DHT22;22418;51.210;6.976;2023-09-19T02:06:20;17.50;99.90
36384;DHT22;22418;51.210;6.976;2023-09-19T02:08:51;17.50;99.90
36384;DHT22;22418;51.210;6.976;2023-09-19T02:11:22;17.50;99.90
36384;DHT22;22418;51.210;6.976;2023-09-19T02:13:52;17.50;99.90
36384;DHT22;22418;51.210;6.976;2023-09-19T02:16:27;17.60;99.90
36384;DHT22;22418;51.210;6.976;2023-09-19T02:18:59;17.60;99.90
36384;DHT22;22418;51.210;6.976;2023-09-19T02:21:30;17.50;99.90
36384;DHT22;22418;51.210;6.976;2023-09-19T02:24:01;17.50;99.90
36384;DHT22;22418;51.210;6.976;2023-09-19T02:26:33;17.50;99.90
36384;DHT22;22418;51.210;6.976;2023-09-19T02:29:06;17.60;99.90
36384;DHT22;22418;51.210;6.976;2023-09-19T02:31:36;17.50;99.90
36384;DHT22;22418;51.210;6.976;2023-09-19T02:34:08;17.50;99.90
36384;DHT22;22418;51.210;6.976;2023-09-19T02:36:39;17.50;99.90
36384;DHT22;22418;51.210;6.976;2023-09-19T02:39:10;17.50;99.90
36384;DHT22;22418;51.210;6.976;2023-09-19T02:41:41;17.40;99.90
36384;DHT22;22418;51.210;6.976;2023-09-19T02:44:12;17.50;99.90
36384;DHT22;22418;51.210;6.976;2023-09-19T02:46:42;17.50;99.90
36384;DHT22;22418;51.210;6.976;2023-09-19T02:49:13;17.40;99.90
36384;DHT22;22418;51.210;6.976;2023-09-19T02:51:44;17.30;99.90
36384;DHT22;22418;51.210;6.976;2023-09-19T02:54:16;17.30;99.90
36384;DHT22;22418;51.210;6.976;2023-09-19T02:56:47;17.30;99.90
36384;DHT22;22418;51.210;6.976;2023-09-19T02:59:18;17.40;99.90
36384;DHT22;22418;51.210;6.976;2023-09-19T03:01:49;17.30;99.90
36384;DHT22;22418;51.210;6.976;2023-09-19T03:04:20;17.30;99.90
36384;DHT22;22418;51.210;6.976;2023-09-19T03:06:51;17.40;99.90
36384;DHT22;22418;51.210;6.976;2023-09-19T03:09:23;17.30;99.90
36384;DHT22;22418;51.210;6.976;2023-09-19T03:11:53;17.40;99.90
36384;DHT22;22418;51.210;6.976;2023-09-19T03:14:24;17.40;99.90
36384;DHT22;22418;51.210;6.976;2023-09-19T03:16:58;17.30;99.90
36384;DHT22;22418;51.210;6.976;2023-09-19T03:19:30;17.30;99.90
36384;DHT22;22418;51.210;6.976;2023-09-19T03:22:01;17.30;99.90
36384;DHT22;22418;51.210;6.976;2023-09-19T03:24:33;17.30;99.90
36384;DHT22;22418;51.210;6.976;2023-09-19T03:27:09;17.30;99.90
36384;DHT22;22418;51.210;6.976;2023-09-19T03:29:40;17.30;99.90
36384;DHT22;22418;51.210;6.976;2023-09-19T03:32:11;17.30;99.90
36384;DHT22;22418;51.210;6.976;2023-09-19T03:34:41;17.30;99.90
36384;DHT22;22418;51.210;6.976;2023-09-19T03:37:13;17.20;99.90
36384;DHT22;22418;51.210;6.976;2023-09-19T03:39:44;17.20;99.90
36384;DHT22;22418;51.210;6.976;2023-09-19T03:42:14;17.20;99.90
36384;DHT22;22418;51.210;6.976;2023-09-19T03:44:45;17.20;99.90
36384;DHT22;22418;51.210;6.976;2023-09-19T03:47:15;17.20;99.90
36384;DHT22;22418;51.210;6.976;2023-09-19T03:49:46;17.10;99.90
36384;DHT22;22418;51.210;6.976;2023-09-19T03:52:17;17.10;99.90
36384;DHT22;22418;51.210;6.976;2023-09-19T03:54:47;17.10;99.90
36384;DHT22;22418;51.210;6.976;2023-09-19T03:57:19;17.10;99.90
36384;DHT22;22418;51.210;6.976;2023-09-19T03:59:51;17.10;99.90
36384;DHT22;22418;51.210;6.976;2023-09-19T04:02:23;17.00;99.90
36384;DHT22;22418;51.210;6.976;2023-09-19T04:04:54;17.10;99.90
36384;DHT22;22418;51.210;6.976;2023-09-19T04:07:25;17.00;99.90
36384;DHT22;22418;51.210;6.976;2023-09-19T04:09:59;17.00;99.90
36384;DHT22;22418;51.210;6.976;2023-09-19T04:12:29;17.00;99.90
36384;DHT22;22418;51.210;6.976;2023-09-19T04:15:00;17.00;99.90
36384;DHT22;22418;51.210;6.976;2023-09-19T04:17:31;17.00;99.90
36384;DHT22;22418;51.210;6.976;2023-09-19T04:20:03;17.00;99.90
36384;DHT22;22418;51.210;6.976;2023-09-19T04:22:37;17.00;99.90
36384;DHT22;22418;51.210;6.976;2023-09-19T04:25:09;17.00;99.90
36384;DHT22;22418;51.210;6.976;2023-09-19T04:27:39;17.00;99.90
36384;DHT22;22418;51.210;6.976;2023-09-19T04:30:11;17.00;99.90
36384;DHT22;22418;51.210;6.976;2023-09-19T04:32:43;17.00;99.90
36384;DHT22;22418;51.210;6.976;2023-09-19T04:35:13;16.90;99.90
36384;DHT22;22418;51.210;6.976;2023-09-19T04:37:45;16.90;99.90
36384;DHT22;22418;51.210;6.976;2023-09-19T04:40:15;16.90;99.90
36384;DHT22;22418;51.210;6.976;2023-09-19T04:42:54;16.90;99.90
36384;DHT22;22418;51.210;6.976;2023-09-19T04:45:28;16.90;99.90
36384;DHT22;22418;51.210;6.976;2023-09-19T04:47:59;16.90;99.90
36384;DHT22;22418;51.210;6.976;2023-09-19T04:50:30;16.90;99.90
36384;DHT22;22418;51.210;6.976;2023-09-19T04:53:00;16.90;99.90
36384;DHT22;22418;51.210;6.976;2023-09-19T04:55:31;16.90;99.90
36384;DHT22;22418;51.210;6.976;2023-09-19T04:58:03;16.90;99.90
36384;DHT22;22418;51.210;6.976;2023-09-19T05:00:34;16.90;99.90
36384;DHT22;22418;51.210;6.976;2023-09-19T05:03:05;16.80;99.90
36384;DHT22;22418;51.210;6.976;2023-09-19T05:05:36;16.80;99.90
36384;DHT22;22418;51.210;6.976;2023-09-19T05:08:09;16.80;99.90
36384;DHT22;22418;51.210;6.976;2023-09-19T05:10:40;16.80;99.90
36384;DHT22;22418;51.210;6.976;2023-09-19T05:13:11;16.80;99.90
36384;DHT22;22418;51.210;6.976;2023-09-19T05:15:42;16.70;99.90
36384;DHT22;22418;51.210;6.976;2023-09-19T05:18:13;16.70;99.90
36384;DHT22;22418;51.210;6.976;2023-09-19T05:20:43;16.70;99.90
36384;DHT22;22418;51.210;6.976;2023-09-19T05:23:14;16.70;99.90
36384;DHT22;22418;51.210;6.976;2023-09-19T05:25:44;16.70;99.90
36384;DHT22;22418;51.210;6.976;2023-09-19T05:28:15;16.70;99.90
36384;DHT22;22418;51.210;6.976;2023-09-19T05:30:46;16.70;99.90
36384;DHT22;22418;51.210;6.976;2023-09-19T05:33:17;16.70;99.90
36384;DHT22;22418;51.210;6.976;2023-09-19T05:35:48;16.80;99.90
36384;DHT22;22418;51.210;6.976;2023-09-19T05:38:19;16.80;99.90
36384;DHT22;22418;51.210;6.976;2023-09-19T05:40:50;16.90;99.90
36384;DHT22;22418;51.210;6.976;2023-09-19T05:43:21;16.90;99.90
36384;DHT22;22418;51.210;6.976;2023-09-19T05:45:51;17.00;99.90
36384;DHT22;22418;51.210;6.976;2023-09-19T05:48:22;16.90;99.90
36384;DHT22;22418;51.210;6.976;2023-09-19T05:50:53;17.00;99.90
36384;DHT22;22418;51.210;6.976;2023-09-19T05:53:23;17.00;99.90
36384;DHT22;22418;51.210;6.976;2023-09-19T05:55:54;17.10;99.90
36384;DHT22;22418;51.210;6.976;2023-09-19T05:58:25;17.10;99.90
36384;DHT22;22418;51.210;6.976;2023-09-19T06:00:56;17.20;99.90
36384;DHT22;22418;51.210;6.976;2023-09-19T06:03:27;17.20;99.90
36384;DHT22;22418;51.210;6.976;2023-09-19T06:06:02;17.30;99.90
36384;DHT22;22418;51.210;6.976;2023-09-19T06:08:32;17.30;99.90
36384;DHT22;22418;51.210;6.976;2023-09-19T06:11:04;17.30;99.90
36384;DHT22;22418;51.210;6.976;2023-09-19T06:13:39;17.30;99.90
36384;DHT22;22418;51.210;6.976;2023-09-19T06:16:13;17.40;99.90
36384;DHT22;22418;51.210;6.976;2023-09-19T06:18:44;17.40;99.90
36384;DHT22;22418;51.210;6.976;2023-09-19T06:21:15;17.40;99.90
36384;DHT22;22418;51.210;6.976;2023-09-19T06:23:46;17.40;99.90
36384;DHT22;22418;51.210;6.976;2023-09-19T06:26:16;17.50;99.90
36384;DHT22;22418;51.210;6.976;2023-09-19T06:28:47;17.40;99.90
36384;DHT22;22418;51.210;6.976;2023-09-19T06:31:18;17.50;99.90
36384;DHT22;22418;51.210;6.976;2023-09-19T06:33:49;17.50;99.90
36384;DHT22;22418;51.210;6.976;2023-09-19T06:36:19;17.50;99.90
36384;DHT22;22418;51.210;6.976;2023-09-19T06:38:50;17.60;99.90
36384;DHT22;22418;51.210;6.976;2023-09-19T06:41:23;17.60;99.90
36384;DHT22;22418;51.210;6.976;2023-09-19T06:43:55;17.70;99.90
36384;DHT22;22418;51.210;6.976;2023-09-19T06:46:25;17.70;99.90
36384;DHT22;22418;51.210;6.976;2023-09-19T06:48:56;17.70;99.90
36384;DHT22;22418;51.210;6.976;2023-09-19T06:51:27;17.80;99.90
36384;DHT22;22418;51.210;6.976;2023-09-19T06:53:57;17.80;99.90
36384;DHT22;22418;51.210;6.976;2023-09-19T06:56:28;17.80;99.90
36384;DHT22;22418;51.210;6.976;2023-09-19T06:58:59;17.90;99.90
36384;DHT22;22418;51.210;6.976;2023-09-19T07:01:30;18.00;99.90
36384;DHT22;22418;51.210;6.976;2023-09-19T07:04:02;18.10;99.90
36384;DHT22;22418;51.210;6.976;2023-09-19T07:06:32;18.20;99.90
36384;DHT22;22418;51.210;6.976;2023-09-19T07:09:03;18.20;99.90
36384;DHT22;22418;51.210;6.976;2023-09-19T07:11:34;18.20;99.90
36384;DHT22;22418;51.210;6.976;2023-09-19T07:14:05;18.40;99.90
36384;DHT22;22418;51.210;6.976;2023-09-19T07:16:36;18.40;99.90
36384;DHT22;22418;51.210;6.976;2023-09-19T07:19:07;18.40;99.90
36384;DHT22;22418;51.210;6.976;2023-09-19T07:21:37;18.50;99.90
36384;DHT22;22418;51.210;6.976;2023-09-19T07:24:11;18.60;99.90
36384;DHT22;22418;51.210;6.976;2023-09-19T07:26:41;18.70;99.90
36384;DHT22;22418;51.210;6.976;2023-09-19T07:29:12;18.80;99.90
36384;DHT22;22418;51.210;6.976;2023-09-19T07:31:42;18.90;99.90
36384;DHT22;22418;51.210;6.976;2023-09-19T07:34:17;19.00;99.90
36384;DHT22;22418;51.210;6.976;2023-09-19T07:36:48;19.00;99.90
36384;DHT22;22418;51.210;6.976;2023-09-19T07:39:22;19.10;99.90
36384;DHT22;22418;51.210;6.976;2023-09-19T07:41:52;19.20;99.90
36384;DHT22;22418;51.210;6.976;2023-09-19T07:44:24;19.30;99.90
36384;DHT22;22418;51.210;6.976;2023-09-19T07:46:56;19.30;99.90
36384;DHT22;22418;51.210;6.976;2023-09-19T07:49:27;19.30;99.90
36384;DHT22;22418;51.210;6.976;2023-09-19T07:51:57;19.30;99.90
36384;DHT22;22418;51.210;6.976;2023-09-19T07:54:29;19.40;99.90
36384;DHT22;22418;51.210;6.976;2023-09-19T07:57:05;19.60;99.90
36384;DHT22;22418;51.210;6.976;2023-09-19T07:59:37;19.60;99.90
36384;DHT22;22418;51.210;6.976;2023-09-19T08:02:08;19.60;99.90
36384;DHT22;22418;51.210;6.976;2023-09-19T08:04:45;19.60;99.90
36384;DHT22;22418;51.210;6.976;2023-09-19T08:07:16;19.40;99.90
36384;DHT22;22418;51.210;6.976;2023-09-19T08:09:46;19.50;99.90
36384;DHT22;22418;51.210;6.976;2023-09-19T08:12:18;19.50;99.90
36384;DHT22;22418;51.210;6.976;2023-09-19T08:14:54;19.50;99.90
36384;DHT22;22418;51.210;6.976;2023-09-19T08:17:25;19.50;99.90
36384;DHT22;22418;51.210;6.976;2023-09-19T08:19:56;19.70;99.90
36384;DHT22;22418;51.210;6.976;2023-09-19T08:22:26;19.90;99.90
36384;DHT22;22418;51.210;6.976;2023-09-19T08:24:58;20.10;99.90
36384;DHT22;22418;51.210;6.976;2023-09-19T08:27:28;20.10;99.90
36384;DHT22;22418;51.210;6.976;2023-09-19T08:29:59;20.00;99.90
36384;DHT22;22418;51.210;6.976;2023-09-19T08:32:32;20.10;99.90
36384;DHT22;22418;51.210;6.976;2023-09-19T08:35:03;20.20;99.90
36384;DHT22;22418;51.210;6.976;2023-09-19T08:37:34;20.10;99.90
36384;DHT22;22418;51.210;6.976;2023-09-19T08:40:05;20.20;99.90
36384;DHT22;22418;51.210;6.976;2023-09-19T08:42:53;20.20;99.90
36384;DHT22;22418;51.210;6.976;2023-09-19T08:45:25;20.40;99.90
36384;DHT22;22418;51.210;6.976;2023-09-19T08:48:22;20.50;99.90
36384;DHT22;22418;51.210;6.976;2023-09-19T08:51:05;20.70;99.90
36384;DHT22;22418;51.210;6.976;2023-09-19T08:53:52;20.90;99.90
36384;DHT22;22418;51.210;6.976;2023-09-19T08:56:26;20.90;99.90
36384;DHT22;22418;51.210;6.976;2023-09-19T08:59:01;20.90;99.90
36384;DHT22;22418;51.210;6.976;2023-09-19T09:01:35;21.00;99.90
36384;DHT22;22418;51.210;6.976;2023-09-19T09:04:08;21.00;99.90
36384;DHT22;22418;51.210;6.976;2023-09-19T09:06:44;21.10;99.90
36384;DHT22;22418;51.210;6.976;2023-09-19T09:09:15;21.10;99.90
36384;DHT22;22418;51.210;6.976;2023-09-19T09:11:48;21.20;99.90
36384;DHT22;22418;51.210;6.976;2023-09-19T09:14:21;21.30;99.90
36384;DHT22;22418;51.210;6.976;2023-09-19T09:16:52;21.30;99.90
36384;DHT22;22418;51.210;6.976;2023-09-19T09:19:26;21.10;99.90
36384;DHT22;22418;51.210;6.976;2023-09-19T09:22:10;21.10;99.90
36384;DHT22;22418;51.210;6.976;2023-09-19T09:24:54;21.00;99.90
36384;DHT22;22418;51.210;6.976;2023-09-19T09:27:28;20.90;99.90
36384;DHT22;22418;51.210;6.976;2023-09-19T09:29:58;20.90;99.90
36384;DHT22;22418;51.210;6.976;2023-09-19T09:32:30;20.90;99.90
36384;DHT22;22418;51.210;6.976;2023-09-19T09:35:07;20.90;99.90
36384;DHT22;22418;51.210;6.976;2023-09-19T09:37:45;21.00;99.90
36384;DHT22;22418;51.210;6.976;2023-09-19T09:40:18;20.90;99.90
36384;DHT22;22418;51.210;6.976;2023-09-19T09:42:49;21.00;99.90
36384;DHT22;22418;51.210;6.976;2023-09-19T09:45:28;20.80;99.90
36384;DHT22;22418;51.210;6.976;2023-09-19T09:48:07;20.80;99.90
36384;DHT22;22418;51.210;6.976;2023-09-19T09:50:48;20.90;99.90
36384;DHT22;22418;51.210;6.976;2023-09-19T09:53:29;21.10;99.90
36384;DHT22;22418;51.210;6.976;2023-09-19T09:56:04;21.10;99.90
36384;DHT22;22418;51.210;6.976;2023-09-19T09:58:51;21.10;99.90
36384;DHT22;22418;51.210;6.976;2023-09-19T10:01:26;21.10;99.90
36384;DHT22;22418;51.210;6.976;2023-09-19T10:04:01;21.30;99.90
36384;DHT22;22418;51.210;6.976;2023-09-19T10:06:41;21.20;99.90
36384;DHT22;22418;51.210;6.976;2023-09-19T10:09:17;21.20;99.90
36384;DHT22;22418;51.210;6.976;2023-09-19T10:12:05;21.10;99.90
36384;DHT22;22418;51.210;6.976;2023-09-19T10:14:41;21.00;99.90
36384;DHT22;22418;51.210;6.976;2023-09-19T10:17:13;20.80;99.90
36384;DHT22;22418;51.210;6.976;2023-09-19T10:19:56;20.90;99.90
36384;DHT22;22418;51.210;6.976;2023-09-19T10:22:36;20.80;99.90
36384;DHT22;22418;51.210;6.976;2023-09-19T10:25:08;20.70;99.90
36384;DHT22;22418;51.210;6.976;2023-09-19T10:27:40;20.50;99.90
36384;DHT22;22418;51.210;6.976;2023-09-19T10:30:13;20.40;99.90
36384;DHT22;22418;51.210;6.976;2023-09-19T10:32:46;20.20;99.90
36384;DHT22;22418;51.210;6.976;2023-09-19T10:35:21;20.10;99.90
36384;DHT22;22418;51.210;6.976;2023-09-19T10:37:54;19.90;99.90
36384;DHT22;22418;51.210;6.976;2023-09-19T10:40:28;20.00;99.90
36384;DHT22;22418;51.210;6.976;2023-09-19T10:43:03;20.00;99.90
36384;DHT22;22418;51.210;6.976;2023-09-19T10:45:36;19.90;99.90
36384;DHT22;22418;51.210;6.976;2023-09-19T10:48:09;20.00;99.90
36384;DHT22;22418;51.210;6.976;2023-09-19T10:50:57;19.90;99.90
36384;DHT22;22418;51.210;6.976;2023-09-19T10:53:40;20.00;99.90
36384;DHT22;22418;51.210;6.976;2023-09-19T10:56:21;20.20;99.90
36384;DHT22;22418;51.210;6.976;2023-09-19T10:59:25;20.20;99.90
36384;DHT22;22418;51.210;6.976;2023-09-19T11:02:00;20.20;99.90
36384;DHT22;22418;51.210;6.976;2023-09-19T11:04:45;20.30;99.90
36384;DHT22;22418;51.210;6.976;2023-09-19T11:07:18;20.20;99.90
36384;DHT22;22418;51.210;6.976;2023-09-19T11:09:56;20.30;99.90
36384;DHT22;22418;51.210;6.976;2023-09-19T11:15:06;20.40;99.90
36384;DHT22;22418;51.210;6.976;2023-09-19T11:17:42;20.50;99.90
36384;DHT22;22418;51.210;6.976;2023-09-19T11:20:19;20.60;99.90
36384;DHT22;22418;51.210;6.976;2023-09-19T11:23:18;20.70;99.90
36384;DHT22;22418;51.210;6.976;2023-09-19T11:25:49;20.60;99.90
36384;DHT22;22418;51.210;6.976;2023-09-19T11:30:54;20.70;99.90
36384;DHT22;22418;51.210;6.976;2023-09-19T11:33:30;20.70;99.90
36384;DHT22;22418;51.210;6.976;2023-09-19T11:36:04;20.70;99.90
36384;DHT22;22418;51.210;6.976;2023-09-19T11:46:31;20.70;99.90
36384;DHT22;22418;51.210;6.976;2023-09-19T11:49:07;20.60;99.90
36384;DHT22;22418;51.210;6.976;2023-09-19T11:51:45;20.70;99.90
36384;DHT22;22418;51.210;6.976;2023-09-19T11:54:18;20.80;99.90
36384;DHT22;22418;51.210;6.976;2023-09-19T11:56:52;20.80;99.90
36384;DHT22;22418;51.210;6.976;2023-09-19T11:59:26;20.70;99.90
36384;DHT22;22418;51.210;6.976;2023-09-19T12:02:01;20.70;99.90
36384;DHT22;22418;51.210;6.976;2023-09-19T12:04:42;20.70;99.90
36384;DHT22;22418;51.210;6.976;2023-09-19T12:07:17;20.70;99.90
36384;DHT22;22418;51.210;6.976;2023-09-19T12:09:51;20.60;99.90
36384;DHT22;22418;51.210;6.976;2023-09-19T12:12:32;20.60;99.90
36384;DHT22;22418;51.210;6.976;2023-09-19T12:15:07;20.40;99.90
36384;DHT22;22418;51.210;6.976;2023-09-19T12:17:39;20.30;99.90
36384;DHT22;22418;51.210;6.976;2023-09-19T12:20:11;20.30;99.90
36384;DHT22;22418;51.210;6.976;2023-09-19T12:22:46;20.30;99.90
36384;DHT22;22418;51.210;6.976;2023-09-19T12:25:17;20.30;99.90
36384;DHT22;22418;51.210;6.976;2023-09-19T12:27:49;20.40;99.90
36384;DHT22;22418;51.210;6.976;2023-09-19T12:30:27;20.30;99.90
36384;DHT22;22418;51.210;6.976;2023-09-19T12:32:58;20.30;99.90
36384;DHT22;22418;51.210;6.976;2023-09-19T12:35:31;20.10;99.90
36384;DHT22;22418;51.210;6.976;2023-09-19T12:38:05;20.10;99.90
36384;DHT22;22418;51.210;6.976;2023-09-19T12:40:36;20.10;99.90
36384;DHT22;22418;51.210;6.976;2023-09-19T12:43:08;20.00;99.90
36384;DHT22;22418;51.210;6.976;2023-09-19T12:45:42;20.10;99.90
36384;DHT22;22418;51.210;6.976;2023-09-19T12:48:26;20.10;99.90
36384;DHT22;22418;51.210;6.976;2023-09-19T12:51:09;20.10;99.90
36384;DHT22;22418;51.210;6.976;2023-09-19T12:53:57;20.10;99.90
36384;DHT22;22418;51.210;6.976;2023-09-19T12:56:28;20.10;99.90
36384;DHT22;22418;51.210;6.976;2023-09-19T12:58:59;20.10;99.90
36384;DHT22;22418;51.210;6.976;2023-09-19T13:01:33;20.10;99.90
36384;DHT22;22418;51.210;6.976;2023-09-19T13:04:17;20.10;99.90
36384;DHT22;22418;51.210;6.976;2023-09-19T13:06:50;20.10;99.90
36384;DHT22;22418;51.210;6.976;2023-09-19T13:09:22;20.10;99.90
36384;DHT22;22418;51.210;6.976;2023-09-19T13:11:58;20.10;99.90
36384;DHT22;22418;51.210;6.976;2023-09-19T13:14:30;20.00;99.90
36384;DHT22;22418;51.210;6.976;2023-09-19T13:17:08;20.00;99.90
36384;DHT22;22418;51.210;6.976;2023-09-19T13:19:51;20.10;99.90
36384;DHT22;22418;51.210;6.976;2023-09-19T13:25:17;20.20;99.90
36384;DHT22;22418;51.210;6.976;2023-09-19T13:30:23;20.20;99.90
36384;DHT22;22418;51.210;6.976;2023-09-19T13:33:09;20.20;99.90
36384;DHT22;22418;51.210;6.976;2023-09-19T13:35:40;20.30;99.90
36384;DHT22;22418;51.210;6.976;2023-09-19T13:38:11;20.40;99.90
36384;DHT22;22418;51.210;6.976;2023-09-19T13:40:42;20.40;99.90
36384;DHT22;22418;51.210;6.976;2023-09-19T13:43:13;20.50;99.90
36384;DHT22;22418;51.210;6.976;2023-09-19T13:45:44;20.60;99.90
36384;DHT22;22418;51.210;6.976;2023-09-19T13:48:14;20.60;99.90
36384;DHT22;22418;51.210;6.976;2023-09-19T13:50:45;20.60;99.90
36384;DHT22;22418;51.210;6.976;2023-09-19T13:53:15;20.60;99.90
36384;DHT22;22418;51.210;6.976;2023-09-19T13:55:47;20.70;99.90
36384;DHT22;22418;51.210;6.976;2023-09-19T13:58:18;20.80;99.90
36384;DHT22;22418;51.210;6.976;2023-09-19T14:00:49;20.80;99.90
36384;DHT22;22418;51.210;6.976;2023-09-19T14:03:20;20.80;99.90
36384;DHT22;22418;51.210;6.976;2023-09-19T14:05:51;20.80;99.90
36384;DHT22;22418;51.210;6.976;2023-09-19T14:08:22;20.80;99.90
36384;DHT22;22418;51.210;6.976;2023-09-19T14:10:53;20.90;99.90
36384;DHT22;22418;51.210;6.976;2023-09-19T14:13:24;20.90;99.90
36384;DHT22;22418;51.210;6.976;2023-09-19T14:15:56;20.80;99.90
36384;DHT22;22418;51.210;6.976;2023-09-19T14:18:26;20.80;99.90
36384;DHT22;22418;51.210;6.976;2023-09-19T14:20:57;20.70;99.90
36384;DHT22;22418;51.210;6.976;2023-09-19T14:23:27;20.70;99.90
36384;DHT22;22418;51.210;6.976;2023-09-19T14:26:00;20.60;99.90
36384;DHT22;22418;51.210;6.976;2023-09-19T14:28:32;20.70;99.90
36384;DHT22;22418;51.210;6.976;2023-09-19T14:31:10;20.60;99.90
36384;DHT22;22418;51.210;6.976;2023-09-19T14:33:41;20.70;99.90
36384;DHT22;22418;51.210;6.976;2023-09-19T14:36:12;20.80;99.90
36384;DHT22;22418;51.210;6.976;2023-09-19T14:38:44;20.80;99.90
36384;DHT22;22418;51.210;6.976;2023-09-19T14:41:14;20.90;99.90
36384;DHT22;22418;51.210;6.976;2023-09-19T14:43:45;20.90;99.90
36384;DHT22;22418;51.210;6.976;2023-09-19T14:46:15;20.90;99.90
36384;DHT22;22418;51.210;6.976;2023-09-19T14:48:46;20.90;99.90
36384;DHT22;22418;51.210;6.976;2023-09-19T14:51:17;21.00;99.90
36384;DHT22;22418;51.210;6.976;2023-09-19T14:53:49;20.90;99.90
36384;DHT22;22418;51.210;6.976;2023-09-19T14:56:20;20.90;99.90
36384;DHT22;22418;51.210;6.976;2023-09-19T14:58:50;20.80;99.90
36384;DHT22;22418;51.210;6.976;2023-09-19T15:01:21;20.70;99.90
36384;DHT22;22418;51.210;6.976;2023-09-19T15:03:52;20.70;99.90
36384;DHT22;22418;51.210;6.976;2023-09-19T15:06:24;20.60;99.90
36384;DHT22;22418;51.210;6.976;2023-09-19T15:08:56;20.60;99.90
36384;DHT22;22418;51.210;6.976;2023-09-19T15:11:28;20.60;99.90
36384;DHT22;22418;51.210;6.976;2023-09-19T15:13:58;20.60;99.90
36384;DHT22;22418;51.210;6.976;2023-09-19T15:16:29;20.50;99.90
36384;DHT22;22418;51.210;6.976;2023-09-19T15:19:00;20.40;99.90
36384;DHT22;22418;51.210;6.976;2023-09-19T15:21:30;20.40;99.90
36384;DHT22;22418;51.210;6.976;2023-09-19T15:24:01;20.30;99.90
36384;DHT22;22418;51.210;6.976;2023-09-19T15:26:32;20.30;99.90
36384;DHT22;22418;51.210;6.976;2023-09-19T15:29:02;20.20;99.90
36384;DHT22;22418;51.210;6.976;2023-09-19T15:31:34;20.20;99.90
36384;DHT22;22418;51.210;6.976;2023-09-19T15:34:06;20.20;99.90
36384;DHT22;22418;51.210;6.976;2023-09-19T15:36:37;20.20;99.90
36384;DHT22;22418;51.210;6.976;2023-09-19T15:39:09;20.10;99.90
36384;DHT22;22418;51.210;6.976;2023-09-19T15:41:44;20.20;99.90
36384;DHT22;22418;51.210;6.976;2023-09-19T15:44:16;20.10;99.90
36384;DHT22;22418;51.210;6.976;2023-09-19T15:46:47;20.10;99.90
36384;DHT22;22418;51.210;6.976;2023-09-19T15:49:18;20.00;99.90
36384;DHT22;22418;51.210;6.976;2023-09-19T15:51:49;20.10;99.90
36384;DHT22;22418;51.210;6.976;2023-09-19T15:54:20;20.10;99.90
36384;DHT22;22418;51.210;6.976;2023-09-19T15:56:50;20.10;99.90
36384;DHT22;22418;51.210;6.976;2023-09-19T15:59:21;20.10;99.90
36384;DHT22;22418;51.210;6.976;2023-09-19T16:01:52;20.10;99.90
36384;DHT22;22418;51.210;6.976;2023-09-19T16:04:22;20.10;99.90
36384;DHT22;22418;51.210;6.976;2023-09-19T16:06:53;20.10;99.90
36384;DHT22;22418;51.210;6.976;2023-09-19T16:09:23;20.10;99.90
36384;DHT22;22418;51.210;6.976;2023-09-19T16:11:54;20.10;99.90
36384;DHT22;22418;51.210;6.976;2023-09-19T16:14:25;20.10;99.90
36384;DHT22;22418;51.210;6.976;2023-09-19T16:16:57;20.10;99.90
36384;DHT22;22418;51.210;6.976;2023-09-19T16:19:28;20.00;99.90
36384;DHT22;22418;51.210;6.976;2023-09-19T16:21:59;20.00;99.90
36384;DHT22;22418;51.210;6.976;2023-09-19T16:24:29;20.00;99.90
36384;DHT22;22418;51.210;6.976;2023-09-19T16:27:00;20.00;99.90
36384;DHT22;22418;51.210;6.976;2023-09-19T16:29:30;19.90;99.90
36384;DHT22;22418;51.210;6.976;2023-09-19T16:32:01;19.90;99.90
36384;DHT22;22418;51.210;6.976;2023-09-19T16:34:32;19.90;99.90
36384;DHT22;22418;51.210;6.976;2023-09-19T16:37:03;19.90;99.90
36384;DHT22;22418;51.210;6.976;2023-09-19T16:39:33;20.00;99.90